Terminal Aerodrome Forecast
Issued by NWS

Home | Current Version | Previous Version | Text Only | Print | Product List | Glossary On
Versions: 1 2 3 4 5 6 7 8 9 10 11 12 13 14 15 16 17 18 19 20 21 22
000
FTUS41 KPBZ 040521 CCA
TAFMGW
TAF COR
KMGW 040521Z 0405/0506 21003KT 5SM BR SKC
     FM040700 00000KT 3SM BR FEW050
     FM040900 00000KT 1SM BR SCT250
     FM041400 10003KT P6SM SCT040 PROB30 0420/0424 3SM -TSRA
      BKN035CB=

USA.gov is the U.S. government's official web portal to all federal, state and local government web resources and services.